createdAt,value
2022-11-03T00:01:57.426Z,0.50
2022-11-03T00:04:24.674Z,0.75
2022-11-03T00:06:54.065Z,0.45
2022-11-03T00:09:22.214Z,0.55
2022-11-03T00:12:08.342Z,0.40
2022-11-03T00:14:35.174Z,0.50
2022-11-03T00:17:01.964Z,0.32
2022-11-03T00:19:47.488Z,0.32
2022-11-03T00:22:14.245Z,1.05
2022-11-03T00:24:40.943Z,0.32
2022-11-03T00:27:07.742Z,0.50
2022-11-03T00:29:34.482Z,0.30
2022-11-03T00:32:01.216Z,0.77
2022-11-03T00:34:27.923Z,0.40
2022-11-03T00:37:13.551Z,0.30
2022-11-03T00:39:40.301Z,0.40
2022-11-03T00:42:07.111Z,0.82
2022-11-03T00:44:33.901Z,0.30
2022-11-03T00:47:00.624Z,0.40
2022-11-03T00:49:27.605Z,0.57
2022-11-03T00:51:54.352Z,0.30
2022-11-03T00:54:21.163Z,0.40
2022-11-03T00:56:47.997Z,0.30
2022-11-03T00:59:14.781Z,0.80
2022-11-03T01:01:47.029Z,0.32
2022-11-03T01:04:35.487Z,0.68
2022-11-03T01:07:21.546Z,0.30
2022-11-03T01:09:48.433Z,0.40
2022-11-03T01:12:17.746Z,0.52
2022-11-03T01:14:52.614Z,0.50
2022-11-03T01:17:41.533Z,0.32
2022-11-03T01:20:08.911Z,0.43
2022-11-03T01:22:35.752Z,0.52
2022-11-03T01:25:02.577Z,0.75
2022-11-03T01:27:29.544Z,0.28
2022-11-03T01:29:56.411Z,0.68
2022-11-03T01:32:41.765Z,0.60
2022-11-03T01:35:08.667Z,0.63
2022-11-03T01:37:35.662Z,1.05
2022-11-03T01:40:02.465Z,0.45
2022-11-03T01:42:29.475Z,0.77
2022-11-03T01:44:56.227Z,0.68
2022-11-03T01:47:33.156Z,1.05
2022-11-03T01:50:07.691Z,1.10
2022-11-03T01:52:40.218Z,1.00
2022-11-03T01:55:32.530Z,0.85
2022-11-03T01:58:31.412Z,0.75
2022-11-03T02:01:00.533Z,0.90
2022-11-03T02:03:31.432Z,1.40
2022-11-03T02:05:59.208Z,1.20
2022-11-03T02:08:58.811Z,1.00
2022-11-03T02:11:43.935Z,1.67
2022-11-03T02:14:14.452Z,1.17
2022-11-03T02:16:47.889Z,1.40
2022-11-03T02:19:27.733Z,0.95
2022-11-03T02:22:00.410Z,0.93
2022-11-03T02:24:52.970Z,1.15
2022-11-03T02:27:21.732Z,0.70
2022-11-03T02:29:49.026Z,1.15
2022-11-03T02:32:24.364Z,1.30
2022-11-03T02:35:15.893Z,1.27
2022-11-03T02:37:48.169Z,1.33
2022-11-03T02:40:17.563Z,1.77
2022-11-03T02:42:48.611Z,1.55
2022-11-03T02:45:34.161Z,1.20
2022-11-03T02:48:03.332Z,1.40
2022-11-03T02:50:32.228Z,1.60
2022-11-03T02:52:59.124Z,1.23
2022-11-03T02:56:00.731Z,1.40
2022-11-03T02:58:35.311Z,1.73
2022-11-03T03:01:27.189Z,1.33
2022-11-03T03:07:01.953Z,1.88
2022-11-03T03:09:44.665Z,1.33
2022-11-03T03:12:14.920Z,1.42
2022-11-03T03:14:46.252Z,0.98
2022-11-03T03:17:20.522Z,1.35
2022-11-03T03:19:56.690Z,1.23
2022-11-03T03:22:38.072Z,1.38
2022-11-03T03:25:14.383Z,0.98
2022-11-03T03:27:46.100Z,1.13
2022-11-03T03:30:13.832Z,1.92
2022-11-03T03:32:46.379Z,1.45
2022-11-03T03:38:08.109Z,1.50
2022-11-03T03:40:38.872Z,1.90
2022-11-03T03:43:08.714Z,1.35
2022-11-03T03:45:36.855Z,1.17
2022-11-03T03:48:05.355Z,1.13
2022-11-03T03:50:37.408Z,1.27
2022-11-03T03:53:07.109Z,1.00
2022-11-03T03:55:40.162Z,1.40
2022-11-03T03:58:08.397Z,1.52
2022-11-03T04:00:35.568Z,1.33
2022-11-03T04:03:02.577Z,1.67
2022-11-03T04:05:29.287Z,2.08
2022-11-03T04:07:56.775Z,1.40
2022-11-03T04:10:23.496Z,1.70
2022-11-03T04:13:09.722Z,1.73
2022-11-03T04:15:51.877Z,1.10
2022-11-03T04:18:39.186Z,1.48
2022-11-03T04:21:26.128Z,2.47
2022-11-03T04:23:54.005Z,1.60
2022-11-03T04:26:24.365Z,1.40
2022-11-03T04:28:54.148Z,1.27
2022-11-03T04:31:21.648Z,0.95
2022-11-03T04:33:49.203Z,0.97
2022-11-03T04:36:24.277Z,1.00
2022-11-03T04:38:52.242Z,1.27
2022-11-03T04:41:31.992Z,1.25
2022-11-03T04:43:59.268Z,0.88
2022-11-03T04:46:28.490Z,1.17
2022-11-03T04:48:58.804Z,1.25
2022-11-03T04:51:29.036Z,0.67
2022-11-03T04:54:01.870Z,1.33
2022-11-03T04:56:30.213Z,1.47
2022-11-03T04:58:58.244Z,1.02
2022-11-03T05:01:25.818Z,0.80
2022-11-03T05:03:54.939Z,0.88
2022-11-03T05:06:26.431Z,1.13
2022-11-03T05:08:59.960Z,0.82
2022-11-03T05:11:29.743Z,0.63
2022-11-03T05:14:02.861Z,1.00
2022-11-03T05:16:30.885Z,1.38
2022-11-03T05:18:57.940Z,0.80
2022-11-03T05:21:27.558Z,0.80
2022-11-03T05:24:03.121Z,0.33
2022-11-03T05:26:35.373Z,0.90
2022-11-03T05:29:30.876Z,1.85
2022-11-03T05:31:57.726Z,1.40
2022-11-03T05:34:30.696Z,0.90
2022-11-03T05:37:06.613Z,0.87
2022-11-03T05:39:46.255Z,0.75
2022-11-03T05:42:20.880Z,0.93
2022-11-03T05:44:47.717Z,0.80
2022-11-03T05:47:52.817Z,0.80
2022-11-03T05:50:25.548Z,0.97
2022-11-03T05:53:09.636Z,1.10
2022-11-03T05:55:37.286Z,0.83
2022-11-03T05:58:37.488Z,0.88
2022-11-03T06:01:13.034Z,0.80
2022-11-03T06:03:39.954Z,0.80
2022-11-03T06:06:18.637Z,0.80
2022-11-03T06:08:46.256Z,0.90
2022-11-03T06:11:35.265Z,0.90
2022-11-03T06:14:09.785Z,0.73
2022-11-03T06:16:44.146Z,0.90
2022-11-03T06:19:20.093Z,0.90
2022-11-03T06:21:49.368Z,0.50
2022-11-03T06:24:18.635Z,1.13
2022-11-03T06:27:04.511Z,0.77
2022-11-03T06:29:33.615Z,1.58
2022-11-03T06:32:19.072Z,0.50
2022-11-03T06:34:48.829Z,0.75
2022-11-03T06:37:20.514Z,0.50
2022-11-03T06:39:49.040Z,0.93
2022-11-03T06:42:18.465Z,0.88
2022-11-03T06:44:50.475Z,0.80
2022-11-03T06:47:22.664Z,0.50
2022-11-03T06:55:27.332Z,0.87
2022-11-03T06:57:59.397Z,0.60
2022-11-03T07:00:38.745Z,0.70
2022-11-03T07:03:27.911Z,1.00
2022-11-03T07:06:15.307Z,1.13
2022-11-03T07:08:45.283Z,0.80
2022-11-03T07:11:36.713Z,0.77
2022-11-03T07:14:17.264Z,0.60
2022-11-03T07:16:47.527Z,0.70
2022-11-03T07:19:20.614Z,0.60
2022-11-03T07:21:47.343Z,0.47
2022-11-03T07:24:21.598Z,0.87
2022-11-03T07:26:49.949Z,1.00
2022-11-03T07:29:22.046Z,2.33
2022-11-03T07:31:52.151Z,0.60
2022-11-03T07:34:33.305Z,0.70
2022-11-03T07:37:00.948Z,1.00
2022-11-03T07:39:35.339Z,0.67
2022-11-03T07:42:23.073Z,0.50
2022-11-03T07:44:53.041Z,0.67
2022-11-03T07:47:22.120Z,0.70
2022-11-03T07:49:48.897Z,0.93
2022-11-03T07:52:22.983Z,1.43
2022-11-03T07:54:51.227Z,1.30
2022-11-03T07:57:26.366Z,1.27
2022-11-03T07:59:58.521Z,0.57
2022-11-03T08:02:33.750Z,1.47
2022-11-03T08:07:50.841Z,0.90
2022-11-03T08:10:17.766Z,1.23
2022-11-03T08:12:44.573Z,0.77
2022-11-03T08:15:11.827Z,1.30
2022-11-03T08:17:38.556Z,0.80
2022-11-03T08:20:05.689Z,1.30
2022-11-03T08:25:35.477Z,0.83
2022-11-03T08:28:03.228Z,1.13
2022-11-03T08:30:30.979Z,0.77
2022-11-03T08:32:57.760Z,1.77
2022-11-03T08:35:26.679Z,1.23
2022-11-03T08:37:55.500Z,0.80
2022-11-03T08:40:22.240Z,0.80
2022-11-03T08:42:50.088Z,0.67
2022-11-03T08:45:17.000Z,1.17
2022-11-03T08:47:43.796Z,0.40
2022-11-03T08:50:10.554Z,0.70
2022-11-03T08:52:37.436Z,1.00
2022-11-03T08:55:04.581Z,0.40
2022-11-03T08:57:50.115Z,0.70
2022-11-03T09:00:40.520Z,0.87
2022-11-03T09:03:08.021Z,0.40
2022-11-03T09:05:34.998Z,0.43
2022-11-03T09:10:48.834Z,0.70
2022-11-03T09:13:15.512Z,0.77
2022-11-03T09:15:42.288Z,0.53
2022-11-03T09:18:09.611Z,0.40
2022-11-03T09:20:36.819Z,1.50
2022-11-03T09:23:03.608Z,0.80
2022-11-03T09:25:30.393Z,2.27
2022-11-03T09:27:57.155Z,1.87
2022-11-03T09:30:23.929Z,0.63
2022-11-03T09:32:50.769Z,0.60
2022-11-03T09:35:17.633Z,0.30
2022-11-03T09:37:44.518Z,0.20
2022-11-03T09:40:14.871Z,0.50
2022-11-03T09:42:42.480Z,0.50
2022-11-03T09:45:10.335Z,0.30
2022-11-03T09:47:40.020Z,0.38
2022-11-03T09:50:11.461Z,0.30
2022-11-03T09:52:38.487Z,0.40
2022-11-03T09:55:13.866Z,0.73
2022-11-03T09:58:01.297Z,0.20
2022-11-03T10:00:28.484Z,0.33
2022-11-03T10:02:56.054Z,0.43
2022-11-03T10:05:43.916Z,0.20
2022-11-03T10:08:24.520Z,0.30
2022-11-03T10:13:49.845Z,0.22
2022-11-03T10:16:20.140Z,0.20
2022-11-03T10:19:06.109Z,0.32
2022-11-03T10:21:37.976Z,0.38
2022-11-03T10:24:05.630Z,0.30
2022-11-03T10:26:48.041Z,0.30
2022-11-03T10:31:54.245Z,0.25
2022-11-03T10:34:41.150Z,0.32
2022-11-03T10:37:37.175Z,0.20
2022-11-03T10:40:06.898Z,0.20
2022-11-03T10:42:35.960Z,0.20
2022-11-03T10:45:15.482Z,0.40
2022-11-03T10:47:42.309Z,0.22
2022-11-03T10:50:18.490Z,0.63
2022-11-03T10:52:45.359Z,0.28
2022-11-03T10:55:12.332Z,0.30
2022-11-03T10:57:39.227Z,0.47
2022-11-03T11:00:09.479Z,0.35
2022-11-03T11:02:36.752Z,0.30
2022-11-03T11:05:13.761Z,0.38
2022-11-03T11:07:43.236Z,0.30
2022-11-03T11:10:28.024Z,0.20
2022-11-03T11:13:25.799Z,0.43
2022-11-03T11:15:56.570Z,0.28
2022-11-03T11:18:29.527Z,0.52
2022-11-03T11:20:58.113Z,0.40
2022-11-03T11:23:27.611Z,0.40
2022-11-03T11:26:06.751Z,0.20
2022-11-03T11:28:33.606Z,0.20
2022-11-03T11:31:00.899Z,0.28
2022-11-03T11:33:48.919Z,0.45
2022-11-03T11:36:25.303Z,0.60
2022-11-03T11:38:52.471Z,0.40
2022-11-03T11:41:20.872Z,0.38
2022-11-03T11:43:47.639Z,0.30
2022-11-03T11:46:42.370Z,0.50
2022-11-03T11:49:09.241Z,0.35
2022-11-03T11:51:37.836Z,0.40
2022-11-03T11:54:17.473Z,0.47
2022-11-03T11:56:47.731Z,0.50
2022-11-03T11:59:25.951Z,0.50
2022-11-03T12:01:56.140Z,0.80
2022-11-03T12:04:47.293Z,0.75
2022-11-03T12:07:14.335Z,0.25
2022-11-03T12:09:41.846Z,0.40
2022-11-03T12:12:09.091Z,0.70
2022-11-03T12:14:36.859Z,0.40
2022-11-03T12:17:18.987Z,0.50
2022-11-03T12:19:50.751Z,0.68
2022-11-03T12:22:23.514Z,0.32
2022-11-03T12:24:58.156Z,0.40
2022-11-03T12:27:24.923Z,0.70
2022-11-03T12:29:52.122Z,0.38
2022-11-03T12:32:32.789Z,0.45
2022-11-03T12:35:08.182Z,0.60
2022-11-03T12:37:35.612Z,0.32
2022-11-03T12:40:02.312Z,0.40
2022-11-03T12:42:29.129Z,0.63
2022-11-03T12:44:56.108Z,0.50
2022-11-03T12:47:23.025Z,0.40
2022-11-03T12:49:49.755Z,0.50
2022-11-03T12:52:16.748Z,0.60
2022-11-03T12:54:43.635Z,0.55
2022-11-03T12:57:10.393Z,0.95
2022-11-03T12:59:37.226Z,0.80
2022-11-03T13:02:04.494Z,0.63
2022-11-03T13:04:31.432Z,0.50
2022-11-03T13:06:58.377Z,0.80
2022-11-03T13:09:25.152Z,0.43
2022-11-03T13:12:10.308Z,0.40
2022-11-03T13:14:37.114Z,0.55
2022-11-03T13:17:22.675Z,1.10
2022-11-03T13:19:54.320Z,0.75
2022-11-03T13:22:21.660Z,0.68
2022-11-03T13:24:48.484Z,0.40
2022-11-03T13:27:15.288Z,0.45
2022-11-03T13:29:42.142Z,0.52
2022-11-03T13:32:09.147Z,0.43
2022-11-03T13:34:35.853Z,0.43
2022-11-03T13:37:02.705Z,0.77
2022-11-03T13:39:29.536Z,0.38
2022-11-03T13:41:56.493Z,0.50
2022-11-03T13:44:23.232Z,0.47
2022-11-03T13:46:50.177Z,0.55
2022-11-03T13:52:04.562Z,0.82
2022-11-03T14:00:07.189Z,0.50
2022-11-03T14:05:45.592Z,0.40
2022-11-03T14:08:12.508Z,0.55
2022-11-03T14:10:39.266Z,0.40
2022-11-03T14:13:06.421Z,0.30
2022-11-03T14:15:34.691Z,0.98
2022-11-03T14:18:01.432Z,0.40
2022-11-03T14:22:59.989Z,0.47
2022-11-03T14:25:26.722Z,0.52
2022-11-03T14:30:37.649Z,0.30
2022-11-03T14:33:04.404Z,0.20
2022-11-03T14:35:31.379Z,0.40
2022-11-03T14:37:58.057Z,0.55
2022-11-03T14:40:43.517Z,0.32
2022-11-03T14:43:10.689Z,0.40
2022-11-03T14:45:39.931Z,0.35
2022-11-03T14:48:09.718Z,0.40
2022-11-03T14:50:37.335Z,0.50
2022-11-03T14:53:04.101Z,0.32
2022-11-03T14:55:49.772Z,0.68
2022-11-03T14:58:16.634Z,0.47
2022-11-03T15:00:43.588Z,0.50
2022-11-03T15:03:10.436Z,0.68
2022-11-03T15:05:46.574Z,0.50
2022-11-03T15:08:14.873Z,0.52
2022-11-03T15:10:41.826Z,1.15
2022-11-03T15:13:09.235Z,0.70
2022-11-03T15:15:36.733Z,0.30
2022-11-03T15:18:03.765Z,0.52
2022-11-03T15:20:30.799Z,0.95
2022-11-03T15:25:44.459Z,0.60
2022-11-03T15:28:14.056Z,0.60
2022-11-03T15:30:41.309Z,0.50
2022-11-03T15:33:08.112Z,0.70
2022-11-03T15:35:35.101Z,0.52
2022-11-03T15:38:01.939Z,0.47
2022-11-03T15:40:28.680Z,0.50
2022-11-03T15:43:00.362Z,0.77
2022-11-03T15:45:29.512Z,0.63
2022-11-03T15:48:07.361Z,0.40
2022-11-03T15:50:34.632Z,1.10
2022-11-03T15:53:01.359Z,1.20
2022-11-03T15:55:28.244Z,1.13
2022-11-03T15:57:54.933Z,1.08
2022-11-03T16:00:21.848Z,0.80
2022-11-03T16:02:48.781Z,0.45
2022-11-03T16:05:18.647Z,0.57
2022-11-03T16:07:47.765Z,0.50
2022-11-03T16:10:14.592Z,0.50
2022-11-03T16:12:42.997Z,0.98
2022-11-03T16:15:10.243Z,0.77
2022-11-03T16:17:41.385Z,0.65
2022-11-03T16:20:11.584Z,0.70
2022-11-03T16:22:38.448Z,0.50
2022-11-03T16:25:08.872Z,0.65
2022-11-03T16:27:39.799Z,0.57
2022-11-03T16:30:07.254Z,0.85
2022-11-03T16:32:34.004Z,0.93
2022-11-03T16:35:00.745Z,0.82
2022-11-03T16:37:29.357Z,0.85
2022-11-03T16:39:56.077Z,1.60
2022-11-03T16:42:22.946Z,0.73
2022-11-03T16:44:49.642Z,0.90
2022-11-03T16:47:16.409Z,0.70
2022-11-03T16:49:43.142Z,0.73
2022-11-03T16:52:09.978Z,0.80
2022-11-03T16:54:36.731Z,1.23
2022-11-03T16:57:03.900Z,0.80
2022-11-03T16:59:30.656Z,1.30
2022-11-03T17:01:57.638Z,1.30
2022-11-03T17:04:24.547Z,1.57
2022-11-03T17:06:51.258Z,9.30
2022-11-03T17:09:18.029Z,8.30
2022-11-03T17:11:44.851Z,4.88
2022-11-03T17:14:14.392Z,5.93
2022-11-03T17:16:48.745Z,6.80
2022-11-03T17:19:16.098Z,7.73
2022-11-03T17:21:43.573Z,7.77
2022-11-03T17:24:11.419Z,7.47
2022-11-03T17:26:54.059Z,5.55
2022-11-03T17:29:27.511Z,6.18
2022-11-03T17:32:37.021Z,11.88
2022-11-03T17:35:07.088Z,13.53
2022-11-03T17:37:35.180Z,13.63
2022-11-03T17:40:01.893Z,10.77
2022-11-03T17:42:28.727Z,10.23
2022-11-03T17:44:57.156Z,22.33
2022-11-03T17:47:24.490Z,11.93
2022-11-03T17:52:37.648Z,4.20
2022-11-03T17:55:15.277Z,2.70
2022-11-03T17:57:42.446Z,10.38
2022-11-03T18:00:16.810Z,8.93
2022-11-03T18:05:47.856Z,1.70
2022-11-03T18:08:16.484Z,14.20
2022-11-03T18:10:46.563Z,28.77
2022-11-03T18:13:23.839Z,15.20
2022-11-03T18:15:59.880Z,2.63
2022-11-03T18:18:43.069Z,4.60
2022-11-03T18:21:15.005Z,12.77
2022-11-03T18:24:00.998Z,5.55
2022-11-03T18:26:28.007Z,5.47
2022-11-03T18:28:54.902Z,3.60
2022-11-03T18:31:25.214Z,2.77
2022-11-03T18:33:53.000Z,2.77
2022-11-03T18:36:20.745Z,1.80
2022-11-03T18:38:55.916Z,1.60
2022-11-03T18:41:41.937Z,2.83
2022-11-03T18:44:19.596Z,1.83
2022-11-03T18:47:05.060Z,1.40
2022-11-03T18:49:33.745Z,1.27
2022-11-03T18:52:04.491Z,1.20
2022-11-03T18:54:34.333Z,1.20
2022-11-03T18:57:02.230Z,1.57
2022-11-03T18:59:32.257Z,1.60
2022-11-03T19:01:59.748Z,1.80
2022-11-03T19:04:27.241Z,1.70
2022-11-03T19:06:54.413Z,1.90
2022-11-03T19:09:40.460Z,2.70
2022-11-03T19:12:10.568Z,1.23
2022-11-03T19:14:56.392Z,1.60
2022-11-03T19:18:01.940Z,1.53
2022-11-03T19:20:29.017Z,1.00
2022-11-03T19:23:34.861Z,1.23
2022-11-03T19:26:02.046Z,3.50
2022-11-03T19:28:48.707Z,7.80
2022-11-03T19:31:57.682Z,9.63
2022-11-03T19:34:28.344Z,8.80
2022-11-03T19:37:35.732Z,8.77
2022-11-03T19:40:16.345Z,8.77
2022-11-03T19:42:43.459Z,7.37
2022-11-03T19:45:29.266Z,7.67
2022-11-03T19:53:51.725Z,6.57
2022-11-03T19:56:37.825Z,15.17
2022-11-03T19:59:06.805Z,12.00
2022-11-03T20:01:33.877Z,16.27
2022-11-03T20:04:01.115Z,7.03
2022-11-03T20:06:28.216Z,6.17
2022-11-03T20:08:56.249Z,5.70
2022-11-03T20:11:42.430Z,6.70
2022-11-03T20:17:17.378Z,5.07
2022-11-03T20:20:03.684Z,4.93
2022-11-03T20:23:00.022Z,3.73
2022-11-03T20:25:51.645Z,2.93
2022-11-03T20:28:46.526Z,2.27
2022-11-03T20:31:14.807Z,1.73
2022-11-03T20:33:41.765Z,2.80
2022-11-03T20:36:17.208Z,2.53
2022-11-03T20:38:59.513Z,2.50
2022-11-03T20:41:51.805Z,2.30
2022-11-03T20:44:18.898Z,2.30
2022-11-03T20:46:45.904Z,2.90
2022-11-03T20:49:12.979Z,6.93
2022-11-03T20:52:04.964Z,4.70
2022-11-03T20:54:32.524Z,2.87
2022-11-03T20:57:18.375Z,2.73
2022-11-03T20:59:45.319Z,2.30
2022-11-03T21:02:13.376Z,2.10
2022-11-03T21:05:00.560Z,2.07
2022-11-03T21:07:27.560Z,1.53
2022-11-03T21:10:19.369Z,1.87
2022-11-03T21:12:47.716Z,1.43
2022-11-03T21:21:25.568Z,1.37
2022-11-03T21:23:52.547Z,0.97
2022-11-03T21:26:40.201Z,1.00
2022-11-03T21:29:07.176Z,0.93
2022-11-03T21:31:33.992Z,1.07
2022-11-03T21:36:45.593Z,1.13
2022-11-03T21:39:31.309Z,1.57
2022-11-03T21:42:17.170Z,1.40
2022-11-03T21:44:44.349Z,1.63
2022-11-03T21:47:12.025Z,1.20
2022-11-03T21:49:47.928Z,1.63
2022-11-03T21:52:17.628Z,1.47
2022-11-03T21:57:30.338Z,1.37
2022-11-03T22:00:00.327Z,0.70
2022-11-03T22:02:30.119Z,1.03
2022-11-03T22:05:35.143Z,0.70
2022-11-03T22:08:02.497Z,1.07
2022-11-03T22:10:29.647Z,1.00
2022-11-03T22:12:56.593Z,1.27
2022-11-03T22:15:42.342Z,0.50
2022-11-03T22:18:09.620Z,0.60
2022-11-03T22:20:55.819Z,0.43
2022-11-03T22:24:01.008Z,0.60
2022-11-03T22:26:46.507Z,0.60
2022-11-03T22:29:50.935Z,0.70
2022-11-03T22:32:18.139Z,0.50
2022-11-03T22:35:03.993Z,0.70
2022-11-03T22:40:15.859Z,0.60
2022-11-03T22:43:19.554Z,0.60
2022-11-03T22:45:52.719Z,0.40
2022-11-03T22:48:19.667Z,0.87
2022-11-03T22:51:24.230Z,0.50
2022-11-03T22:54:09.861Z,0.37
2022-11-03T22:56:55.457Z,0.30
2022-11-03T22:59:22.516Z,0.50
2022-11-03T23:01:49.612Z,0.70
2022-11-03T23:04:35.133Z,0.60
2022-11-03T23:07:22.428Z,0.53
2022-11-03T23:09:50.734Z,0.33
2022-11-03T23:12:17.579Z,0.90
2022-11-03T23:15:02.985Z,0.90
2022-11-03T23:17:48.132Z,1.43
2022-11-03T23:20:34.150Z,0.50
2022-11-03T23:23:00.941Z,0.30
2022-11-03T23:25:27.691Z,0.40
2022-11-03T23:27:54.529Z,0.40
2022-11-03T23:30:21.323Z,0.53
2022-11-03T23:32:48.264Z,0.33
2022-11-03T23:35:15.153Z,0.50
2022-11-03T23:37:41.963Z,0.40
2022-11-03T23:40:09.366Z,0.37
2022-11-03T23:42:36.205Z,0.23
2022-11-03T23:45:21.629Z,0.40
2022-11-03T23:48:07.503Z,0.40
2022-11-03T23:50:34.505Z,0.70
2022-11-03T23:53:01.511Z,0.53
2022-11-03T23:55:48.328Z,0.40
2022-11-03T23:58:21.824Z,0.40
